Time;durP1;ratioP1;P1;durP2;ratioP2;P2;SDS_P1;SDS_P2;PMS_P1;PMS_P2;Temp;Humidity;BMP_temperature;BMP_pressure;BME280_temperature;BME280_humidity;BME280_pressure;Samples;Min_cycle;Max_cycle;Signal;HPM_P1;HPM_P2
2023/05/08 00:01:17;;;;;;;20.85;18.83;;;;;;;;;;5081020;28;20037;-73
2023/05/08 00:03:43;;;;;;;20.88;18.77;;;;;;;;;;5047802;28;20502;-73
2023/05/08 00:06:09;;;;;;;20.95;18.73;;;;;;;;;;5077808;28;20055;-73
2023/05/08 00:08:35;;;;;;;20.42;18.25;;;;;;;;;;5050878;28;20480;-73
2023/05/08 00:11:01;;;;;;;20.20;18.10;;;;;;;;;;5075488;28;20046;-73
2023/05/08 00:13:27;;;;;;;21.02;18.92;;;;;;;;;;5050343;28;20041;-73
2023/05/08 00:15:53;;;;;;;19.80;17.88;;;;;;;;;;5051869;28;20064;-73
2023/05/08 00:18:20;;;;;;;20.75;18.73;;;;;;;;;;5043552;28;20423;-74
2023/05/08 00:20:46;;;;;;;20.10;18.10;;;;;;;;;;5048918;28;20032;-74
2023/05/08 00:23:12;;;;;;;19.42;17.30;;;;;;;;;;5047225;28;20061;-74
2023/05/08 00:25:38;;;;;;;19.50;17.48;;;;;;;;;;5049929;28;20081;-74
2023/05/08 00:28:04;;;;;;;20.55;18.45;;;;;;;;;;5050301;28;20493;-74
2023/05/08 00:30:30;;;;;;;19.98;17.95;;;;;;;;;;5049469;28;20094;-72
2023/05/08 00:32:56;;;;;;;19.40;17.45;;;;;;;;;;5047981;28;20039;-72
2023/05/08 00:35:22;;;;;;;19.85;17.75;;;;;;;;;;5082787;28;20068;-73
2023/05/08 00:37:48;;;;;;;19.50;17.50;;;;;;;;;;5048539;28;20056;-73
2023/05/08 00:40:14;;;;;;;20.58;18.38;;;;;;;;;;5039956;28;20040;-72
2023/05/08 00:42:40;;;;;;;19.60;17.65;;;;;;;;;;5049455;28;20049;-73
2023/05/08 00:45:06;;;;;;;19.73;17.73;;;;;;;;;;5051166;28;20037;-74
2023/05/08 00:47:32;;;;;;;19.80;17.88;;;;;;;;;;5044069;28;20068;-74
2023/05/08 00:50:00;;;;;;;19.98;17.70;;;;;;;;;;5051007;28;20095;-73
2023/05/08 00:52:27;;;;;;;20.77;18.67;;;;;;;;;;5049404;28;20622;-73
2023/05/08 00:54:54;;;;;;;19.83;17.80;;;;;;;;;;5051848;28;20088;-71
2023/05/08 00:57:20;;;;;;;19.90;17.90;;;;;;;;;;5046519;28;20126;-72
2023/05/08 00:59:47;;;;;;;20.15;18.15;;;;;;;;;;5074366;28;20045;-72
2023/05/08 01:02:13;;;;;;;20.38;18.38;;;;;;;;;;5046187;28;20093;-72
2023/05/08 01:04:40;;;;;;;20.83;18.65;;;;;;;;;;5048709;28;20040;-71
2023/05/08 01:07:06;;;;;;;20.73;17.75;;;;;;;;;;5048178;28;20052;-71
2023/05/08 01:09:32;;;;;;;19.45;17.55;;;;;;;;;;5049450;28;20040;-71
2023/05/08 01:12:11;;;;;;;19.60;17.60;;;;;;;;;;5047811;28;20041;-71
2023/05/08 01:14:49;;;;;;;20.17;17.65;;;;;;;;;;5053063;28;20132;-71
2023/05/08 01:17:15;;;;;;;20.30;18.27;;;;;;;;;;5050024;28;20053;-71
2023/05/08 01:19:54;;;;;;;19.50;17.52;;;;;;;;;;5041763;28;20151;-71
2023/05/08 01:22:24;;;;;;;19.33;17.35;;;;;;;;;;5045086;28;20044;-72
2023/05/08 01:25:08;;;;;;;21.23;19.02;;;;;;;;;;5050187;28;20033;-71
2023/05/08 01:27:40;;;;;;;19.50;17.52;;;;;;;;;;5049784;28;20065;-72
2023/05/08 01:30:19;;;;;;;19.35;17.35;;;;;;;;;;5048366;28;20041;-71
2023/05/08 01:32:49;;;;;;;20.00;18.02;;;;;;;;;;5044409;28;20068;-72
2023/05/08 01:35:31;;;;;;;19.75;17.75;;;;;;;;;;5075885;28;20136;-72
2023/05/08 01:37:59;;;;;;;19.73;17.10;;;;;;;;;;5044123;28;20041;-71
2023/05/08 01:40:40;;;;;;;20.05;17.95;;;;;;;;;;5046023;28;20052;-71
2023/05/08 01:43:16;;;;;;;20.05;18.05;;;;;;;;;;5047304;28;20391;-72
2023/05/08 01:45:45;;;;;;;19.27;17.35;;;;;;;;;;5046457;28;20041;-72
2023/05/08 01:48:12;;;;;;;19.88;17.70;;;;;;;;;;5052706;28;20041;-72
2023/05/08 01:51:00;;;;;;;18.85;17.05;;;;;;;;;;5040834;28;20484;-72
2023/05/08 01:53:29;;;;;;;19.55;17.60;;;;;;;;;;5049167;28;20049;-71
2023/05/08 01:55:59;;;;;;;20.58;17.40;;;;;;;;;;5047115;28;20053;-71
2023/05/08 01:58:26;;;;;;;20.13;18.02;;;;;;;;;;5045855;28;20049;-72
2023/05/08 02:00:53;;;;;;;20.45;18.35;;;;;;;;;;5039861;28;20053;-72
2023/05/08 02:03:20;;;;;;;18.77;16.77;;;;;;;;;;5042088;28;20412;-72
2023/05/08 02:05:48;;;;;;;19.35;17.42;;;;;;;;;;5043211;28;20044;-72
2023/05/08 02:08:14;;;;;;;20.20;18.20;;;;;;;;;;5047107;28;20040;-72
2023/05/08 02:10:41;;;;;;;18.48;16.63;;;;;;;;;;5044866;28;20052;-71
2023/05/08 02:13:09;;;;;;;20.08;18.08;;;;;;;;;;5043737;28;20033;-71
2023/05/08 02:15:36;;;;;;;20.67;18.58;;;;;;;;;;5045289;28;20049;-71
2023/05/08 02:18:04;;;;;;;20.67;18.58;;;;;;;;;;5043832;28;20518;-71
2023/05/08 02:20:31;;;;;;;20.10;18.05;;;;;;;;;;5044800;28;20082;-71
2023/05/08 02:22:57;;;;;;;20.67;18.58;;;;;;;;;;5046753;28;20076;-71
2023/05/08 02:25:25;;;;;;;20.58;18.42;;;;;;;;;;5076063;28;20044;-72
2023/05/08 02:27:53;;;;;;;19.80;17.77;;;;;;;;;;5046140;28;20044;-72
2023/05/08 02:30:19;;;;;;;19.63;17.55;;;;;;;;;;5045134;28;20080;-72
2023/05/08 02:32:46;;;;;;;20.42;18.42;;;;;;;;;;5048193;28;20040;-71
2023/05/08 02:35:13;;;;;;;20.98;18.48;;;;;;;;;;5044978;28;20080;-71
2023/05/08 02:37:40;;;;;;;19.42;17.33;;;;;;;;;;5047612;28;20041;-72
2023/05/08 02:40:08;;;;;;;21.08;18.98;;;;;;;;;;5048214;28;20049;-72
2023/05/08 02:42:34;;;;;;;20.42;18.38;;;;;;;;;;5040338;28;20063;-72
2023/05/08 02:45:00;;;;;;;19.67;17.67;;;;;;;;;;5042248;28;20037;-71
2023/05/08 02:47:49;;;;;;;22.08;19.77;;;;;;;;;;5045271;28;20496;-72
2023/05/08 02:50:35;;;;;;;21.13;19.02;;;;;;;;;;5037687;28;20064;-72
2023/05/08 02:53:07;;;;;;;20.10;18.10;;;;;;;;;;5051906;28;20048;-71
2023/05/08 02:55:46;;;;;;;20.42;18.20;;;;;;;;;;5050023;28;20372;-72
2023/05/08 02:58:30;;;;;;;21.08;18.75;;;;;;;;;;5054430;28;20131;-72
2023/05/08 03:01:05;;;;;;;20.92;18.25;;;;;;;;;;5046935;28;20131;-72
2023/05/08 03:03:39;;;;;;;19.35;17.45;;;;;;;;;;5082736;28;20091;-71
2023/05/08 03:06:09;;;;;;;19.30;17.30;;;;;;;;;;5046240;28;20127;-71
2023/05/08 03:08:36;;;;;;;20.10;18.00;;;;;;;;;;5049325;28;20125;-71
2023/05/08 03:11:07;;;;;;;19.73;17.67;;;;;;;;;;5053224;28;20041;-72
2023/05/08 03:13:34;;;;;;;18.90;16.90;;;;;;;;;;5082174;28;20051;-71
2023/05/08 03:16:01;;;;;;;20.42;18.33;;;;;;;;;;5084319;28;20331;-71
2023/05/08 03:18:33;;;;;;;20.30;18.20;;;;;;;;;;5047210;28;20084;-71
2023/05/08 03:21:00;;;;;;;19.60;17.63;;;;;;;;;;5044256;28;20149;-71
2023/05/08 03:23:27;;;;;;;19.70;17.67;;;;;;;;;;5048873;28;20056;-71
2023/05/08 03:25:53;;;;;;;20.17;17.33;;;;;;;;;;5080283;28;20045;-72
2023/05/08 03:28:20;;;;;;;20.05;17.95;;;;;;;;;;5050416;28;20045;-72
2023/05/08 03:30:47;;;;;;;19.80;17.70;;;;;;;;;;5077561;28;20057;-72
2023/05/08 03:33:13;;;;;;;19.83;17.73;;;;;;;;;;5083281;28;20049;-72
2023/05/08 03:35:40;;;;;;;21.00;18.80;;;;;;;;;;5048184;28;20484;-71
2023/05/08 03:38:07;;;;;;;19.52;17.42;;;;;;;;;;5046432;28;20094;-71
2023/05/08 03:40:41;;;;;;;20.63;18.42;;;;;;;;;;5047051;28;20415;-74
2023/05/08 03:43:08;;;;;;;20.25;17.83;;;;;;;;;;5045431;28;20049;-72
2023/05/08 03:45:38;;;;;;;24.25;19.75;;;;;;;;;;5047219;28;20044;-72
2023/05/08 03:48:08;;;;;;;21.17;18.38;;;;;;;;;;5083198;28;20049;-72
2023/05/08 03:50:35;;;;;;;20.90;18.70;;;;;;;;;;5081315;28;20107;-72
2023/05/08 03:53:01;;;;;;;18.88;16.88;;;;;;;;;;5047936;28;20463;-72
2023/05/08 03:55:27;;;;;;;19.98;17.88;;;;;;;;;;5049362;28;20056;-72
2023/05/08 03:57:59;;;;;;;22.38;18.63;;;;;;;;;;5049822;28;20075;-72
2023/05/08 04:00:45;;;;;;;21.67;19.38;;;;;;;;;;5042292;28;20095;-72
2023/05/08 04:03:29;;;;;;;19.38;17.08;;;;;;;;;;5022750;28;20061;-72
2023/05/08 04:06:14;;;;;;;20.83;18.40;;;;;;;;;;5049082;28;20048;-71
2023/05/08 04:08:53;;;;;;;21.13;18.80;;;;;;;;;;5051312;28;20052;-72
2023/05/08 04:11:26;;;;;;;20.67;18.52;;;;;;;;;;5047786;28;20041;-73
2023/05/08 04:13:57;;;;;;;20.10;17.95;;;;;;;;;;5050676;28;20095;-72
2023/05/08 04:16:24;;;;;;;20.58;18.38;;;;;;;;;;5079006;28;20045;-72
2023/05/08 04:18:54;;;;;;;21.98;18.50;;;;;;;;;;5047981;28;20065;-72
2023/05/08 04:21:22;;;;;;;22.02;19.55;;;;;;;;;;5079807;28;20076;-73
2023/05/08 04:23:51;;;;;;;22.27;19.88;;;;;;;;;;5049841;28;20511;-72
2023/05/08 04:26:17;;;;;;;21.98;19.00;;;;;;;;;;5081431;28;20057;-72
2023/05/08 04:28:46;;;;;;;20.75;18.55;;;;;;;;;;5048045;28;20400;-73
2023/05/08 04:31:16;;;;;;;20.92;18.63;;;;;;;;;;5048260;28;20124;-72
2023/05/08 04:33:44;;;;;;;20.13;18.00;;;;;;;;;;5050025;28;20140;-72
2023/05/08 04:36:11;;;;;;;21.67;19.38;;;;;;;;;;5080205;28;20550;-72
2023/05/08 04:38:37;;;;;;;20.50;18.30;;;;;;;;;;5039212;28;20044;-73
2023/05/08 04:41:04;;;;;;;20.70;18.45;;;;;;;;;;5046963;28;20571;-72
2023/05/08 04:43:30;;;;;;;19.48;17.40;;;;;;;;;;5082035;28;20049;-72
2023/05/08 04:45:56;;;;;;;20.50;18.30;;;;;;;;;;5080779;28;20747;-72
2023/05/08 04:48:22;;;;;;;21.20;18.90;;;;;;;;;;5046113;28;20045;-73
2023/05/08 04:50:48;;;;;;;22.58;19.75;;;;;;;;;;5051112;28;20555;-72
2023/05/08 04:53:14;;;;;;;21.17;18.75;;;;;;;;;;5048521;28;20076;-72
2023/05/08 04:55:40;;;;;;;23.20;20.00;;;;;;;;;;5037648;28;20499;-72
2023/05/08 04:58:06;;;;;;;21.48;18.63;;;;;;;;;;5049240;28;20052;-73
2023/05/08 05:00:34;;;;;;;20.38;18.23;;;;;;;;;;5048427;28;20091;-72
2023/05/08 05:03:00;;;;;;;19.10;16.95;;;;;;;;;;5041152;28;20107;-72
2023/05/08 05:05:26;;;;;;;22.13;19.73;;;;;;;;;;5047224;28;20047;-71
2023/05/08 05:07:52;;;;;;;20.77;18.58;;;;;;;;;;5079184;28;20045;-72
2023/05/08 05:10:18;;;;;;;21.27;18.17;;;;;;;;;;5078386;28;20393;-73
2023/05/08 05:12:44;;;;;;;21.15;18.75;;;;;;;;;;5051610;28;20075;-72
2023/05/08 05:15:11;;;;;;;21.38;19.08;;;;;;;;;;5075371;28;20049;-73
2023/05/08 05:17:37;;;;;;;21.73;19.42;;;;;;;;;;5046008;28;20102;-72
2023/05/08 05:20:04;;;;;;;22.02;19.67;;;;;;;;;;5078508;28;20063;-72
2023/05/08 05:22:32;;;;;;;21.27;18.92;;;;;;;;;;5046036;28;20115;-71
2023/05/08 05:24:58;;;;;;;22.45;20.05;;;;;;;;;;5050266;28;20045;-72
2023/05/08 05:27:24;;;;;;;23.80;19.60;;;;;;;;;;5041544;28;20091;-73
2023/05/08 05:29:50;;;;;;;23.02;20.50;;;;;;;;;;5049469;28;20099;-72
2023/05/08 05:32:19;;;;;;;22.02;19.60;;;;;;;;;;5075275;28;20045;-72
2023/05/08 05:34:45;;;;;;;22.15;19.55;;;;;;;;;;5045833;28;20087;-73
2023/05/08 05:37:11;;;;;;;22.85;19.35;;;;;;;;;;5045419;28;20458;-73
2023/05/08 05:39:37;;;;;;;22.48;20.05;;;;;;;;;;5047421;28;20123;-72
2023/05/08 05:42:03;;;;;;;22.95;18.92;;;;;;;;;;5049666;28;20238;-73
2023/05/08 05:44:29;;;;;;;20.35;17.92;;;;;;;;;;5078653;28;20056;-73
2023/05/08 05:46:55;;;;;;;22.88;19.90;;;;;;;;;;5045125;28;20472;-73
2023/05/08 05:49:22;;;;;;;22.00;19.42;;;;;;;;;;5044543;28;20044;-74
2023/05/08 05:51:50;;;;;;;22.35;19.67;;;;;;;;;;5049071;28;20170;-73
2023/05/08 05:54:16;;;;;;;22.85;20.15;;;;;;;;;;5075773;28;20109;-73
2023/05/08 05:56:42;;;;;;;22.55;20.13;;;;;;;;;;5047054;28;20053;-72
2023/05/08 05:59:08;;;;;;;22.48;20.05;;;;;;;;;;5041433;28;20113;-73
2023/05/08 06:01:34;;;;;;;22.65;19.85;;;;;;;;;;5046081;28;20486;-73
2023/05/08 06:04:00;;;;;;;22.50;20.05;;;;;;;;;;5047706;28;20076;-72
2023/05/08 06:06:27;;;;;;;22.98;19.98;;;;;;;;;;5046704;28;20112;-72
2023/05/08 06:08:53;;;;;;;23.70;20.92;;;;;;;;;;5046194;28;20132;-73
2023/05/08 06:11:21;;;;;;;25.77;21.15;;;;;;;;;;5045471;28;20515;-73
2023/05/08 06:13:47;;;;;;;23.77;20.73;;;;;;;;;;5041396;28;20098;-73
2023/05/08 06:16:13;;;;;;;25.60;21.00;;;;;;;;;;5046966;28;20128;-73
2023/05/08 06:18:39;;;;;;;25.40;20.70;;;;;;;;;;5046367;28;20639;-73
2023/05/08 06:21:05;;;;;;;21.98;19.58;;;;;;;;;;5076838;28;20176;-73
2023/05/08 06:23:33;;;;;;;25.83;20.30;;;;;;;;;;5049610;28;20124;-73
2023/05/08 06:25:59;;;;;;;23.40;20.85;;;;;;;;;;5077865;28;20049;-73
2023/05/08 06:28:26;;;;;;;26.25;22.27;;;;;;;;;;5075311;28;20139;-73
2023/05/08 06:30:53;;;;;;;26.00;22.52;;;;;;;;;;5047485;28;20551;-73
2023/05/08 06:33:19;;;;;;;24.63;21.40;;;;;;;;;;5043992;28;20405;-73
2023/05/08 06:35:48;;;;;;;24.92;22.10;;;;;;;;;;5043714;28;20092;-73
2023/05/08 06:38:14;;;;;;;26.88;21.90;;;;;;;;;;5042252;28;20037;-73
2023/05/08 06:40:42;;;;;;;25.13;20.65;;;;;;;;;;5045477;28;20045;-74
2023/05/08 06:43:08;;;;;;;23.90;21.15;;;;;;;;;;5043220;28;20042;-73
2023/05/08 06:45:34;;;;;;;25.02;21.73;;;;;;;;;;5075646;28;20037;-74
2023/05/08 06:48:00;;;;;;;24.92;22.15;;;;;;;;;;5037843;28;20041;-74
2023/05/08 06:50:26;;;;;;;25.98;22.15;;;;;;;;;;5046433;28;20059;-73
2023/05/08 06:52:52;;;;;;;26.65;22.48;;;;;;;;;;5047913;28;20029;-73
2023/05/08 06:55:18;;;;;;;22.85;20.42;;;;;;;;;;5043950;28;20421;-73
2023/05/08 06:57:44;;;;;;;23.83;21.33;;;;;;;;;;5047482;28;20385;-74
2023/05/08 07:00:10;;;;;;;23.55;20.92;;;;;;;;;;5066209;28;20044;-73
2023/05/08 07:02:36;;;;;;;23.73;21.00;;;;;;;;;;5052303;28;20095;-73
2023/05/08 07:05:02;;;;;;;25.25;21.98;;;;;;;;;;5052013;28;20131;-73
2023/05/08 07:07:28;;;;;;;23.65;21.15;;;;;;;;;;5042958;28;20049;-74
2023/05/08 07:09:54;;;;;;;25.92;20.45;;;;;;;;;;5080798;28;20476;-73
2023/05/08 07:12:20;;;;;;;23.80;21.33;;;;;;;;;;5048412;28;20056;-74
2023/05/08 07:14:46;;;;;;;24.90;21.98;;;;;;;;;;5050874;28;20040;-73
2023/05/08 07:17:12;;;;;;;24.38;21.77;;;;;;;;;;5055963;28;20400;-74
2023/05/08 07:19:38;;;;;;;24.73;21.92;;;;;;;;;;5048858;28;20130;-74
2023/05/08 07:22:05;;;;;;;24.08;21.45;;;;;;;;;;5074979;28;20127;-74
2023/05/08 07:24:31;;;;;;;26.95;21.40;;;;;;;;;;5049790;28;20090;-74
2023/05/08 07:26:58;;;;;;;23.73;20.88;;;;;;;;;;5047589;28;20064;-74
2023/05/08 07:29:25;;;;;;;24.95;22.30;;;;;;;;;;5077620;28;20041;-73
2023/05/08 07:31:51;;;;;;;25.17;22.30;;;;;;;;;;5049599;28;20086;-74
2023/05/08 07:34:17;;;;;;;24.05;21.52;;;;;;;;;;5042307;28;20045;-74
2023/05/08 07:36:44;;;;;;;27.40;22.73;;;;;;;;;;5047274;28;20116;-74
2023/05/08 07:39:10;;;;;;;24.33;21.58;;;;;;;;;;5036000;28;20503;-74
2023/05/08 07:41:37;;;;;;;24.30;21.70;;;;;;;;;;5040808;28;20052;-73
2023/05/08 07:44:03;;;;;;;24.60;21.48;;;;;;;;;;5053018;28;20452;-74
2023/05/08 07:46:30;;;;;;;24.65;22.00;;;;;;;;;;5079880;28;20091;-74
2023/05/08 07:48:56;;;;;;;23.88;21.33;;;;;;;;;;5069153;28;20407;-73
2023/05/08 07:51:22;;;;;;;24.17;21.23;;;;;;;;;;5056746;28;20044;-74
2023/05/08 07:53:49;;;;;;;25.35;22.45;;;;;;;;;;5050313;28;20040;-74
2023/05/08 07:56:16;;;;;;;26.13;22.40;;;;;;;;;;5041175;28;20060;-73
2023/05/08 07:58:44;;;;;;;24.38;21.77;;;;;;;;;;5079438;28;20056;-73
2023/05/08 08:01:10;;;;;;;25.55;22.77;;;;;;;;;;5050270;28;20055;-73
2023/05/08 08:03:36;;;;;;;24.63;21.98;;;;;;;;;;5050402;28;20052;-74
2023/05/08 08:06:03;;;;;;;24.83;22.15;;;;;;;;;;5081954;28;20037;-73
2023/05/08 08:08:29;;;;;;;25.33;22.00;;;;;;;;;;5050366;28;20041;-74
2023/05/08 08:10:55;;;;;;;24.92;22.33;;;;;;;;;;5055749;28;20054;-74
2023/05/08 08:13:21;;;;;;;28.42;23.60;;;;;;;;;;5082456;28;20053;-74
2023/05/08 08:15:47;;;;;;;26.77;22.98;;;;;;;;;;5051386;28;20044;-74
2023/05/08 08:18:13;;;;;;;25.13;22.42;;;;;;;;;;5049870;28;20053;-74
2023/05/08 08:20:39;;;;;;;25.02;22.42;;;;;;;;;;5050390;28;20041;-74
2023/05/08 08:23:05;;;;;;;26.63;23.70;;;;;;;;;;5049268;28;20452;-74
2023/05/08 08:25:31;;;;;;;26.42;23.50;;;;;;;;;;5057490;28;20120;-73
2023/05/08 08:27:57;;;;;;;27.15;24.25;;;;;;;;;;5083110;28;20075;-73
2023/05/08 08:30:23;;;;;;;28.25;24.50;;;;;;;;;;5082783;28;20044;-74
2023/05/08 08:32:49;;;;;;;26.15;23.35;;;;;;;;;;5079724;28;20049;-74
2023/05/08 08:35:16;;;;;;;26.48;23.60;;;;;;;;;;5049222;28;20041;-74
2023/05/08 08:37:42;;;;;;;26.38;23.45;;;;;;;;;;5043811;28;20091;-74
2023/05/08 08:40:08;;;;;;;25.75;22.95;;;;;;;;;;5082831;28;20056;-74
2023/05/08 08:42:34;;;;;;;26.15;23.10;;;;;;;;;;5049655;28;20492;-74
2023/05/08 08:45:01;;;;;;;27.60;24.70;;;;;;;;;;5054067;28;20087;-74
2023/05/08 08:47:28;;;;;;;27.67;24.55;;;;;;;;;;5048904;28;20044;-74
2023/05/08 08:49:54;;;;;;;26.40;23.48;;;;;;;;;;5049163;28;20045;-74
2023/05/08 08:52:30;;;;;;;27.33;24.40;;;;;;;;;;5048962;28;20072;-74
2023/05/08 08:55:00;;;;;;;28.45;24.35;;;;;;;;;;5049240;28;20056;-74
2023/05/08 08:57:27;;;;;;;27.83;24.58;;;;;;;;;;5043419;28;20082;-73
2023/05/08 08:59:55;;;;;;;25.42;22.70;;;;;;;;;;5048433;28;20037;-74
2023/05/08 09:02:22;;;;;;;28.08;24.35;;;;;;;;;;5049154;28;20044;-74
2023/05/08 09:04:52;;;;;;;28.13;25.15;;;;;;;;;;5048317;28;20040;-74
2023/05/08 09:07:18;;;;;;;27.50;24.50;;;;;;;;;;5080685;28;20378;-74
2023/05/08 09:09:45;;;;;;;25.67;22.98;;;;;;;;;;5046572;28;20040;-74
2023/05/08 09:12:12;;;;;;;27.48;24.63;;;;;;;;;;5047963;28;20211;-74
2023/05/08 09:14:38;;;;;;;27.48;24.40;;;;;;;;;;5048507;28;20067;-74
2023/05/08 09:17:05;;;;;;;27.92;24.92;;;;;;;;;;5049277;28;20036;-74
2023/05/08 09:19:31;;;;;;;30.20;25.77;;;;;;;;;;5049533;28;20040;-74
2023/05/08 09:22:00;;;;;;;31.17;24.63;;;;;;;;;;5050875;28;20037;-74
2023/05/08 09:24:26;;;;;;;29.58;26.48;;;;;;;;;;5047696;28;20667;-74
2023/05/08 09:26:53;;;;;;;29.00;25.60;;;;;;;;;;5082591;28;20115;-74
2023/05/08 09:29:23;;;;;;;30.35;24.90;;;;;;;;;;5045164;28;20061;-74
2023/05/08 09:31:50;;;;;;;26.50;23.65;;;;;;;;;;5082162;28;20041;-74
2023/05/08 09:34:26;;;;;;;28.83;25.02;;;;;;;;;;5049396;28;20060;-74
2023/05/08 09:36:53;;;;;;;31.83;27.35;;;;;;;;;;5044390;28;20045;-74
2023/05/08 09:39:23;;;;;;;31.42;26.17;;;;;;;;;;5043720;28;20045;-74
2023/05/08 09:41:59;;;;;;;31.45;27.33;;;;;;;;;;5050322;28;20045;-74
2023/05/08 09:44:25;;;;;;;28.50;25.40;;;;;;;;;;5049761;28;20090;-74
2023/05/08 09:46:52;;;;;;;30.48;27.25;;;;;;;;;;5049358;28;20033;-74
2023/05/08 09:49:19;;;;;;;28.88;25.65;;;;;;;;;;5048957;28;20095;-74
2023/05/08 09:51:55;;;;;;;28.83;25.50;;;;;;;;;;5080490;28;20130;-74
2023/05/08 09:54:21;;;;;;;31.95;27.25;;;;;;;;;;5081129;28;20098;-74
2023/05/08 09:56:47;;;;;;;32.60;27.92;;;;;;;;;;5055874;28;20049;-74
2023/05/08 09:59:26;;;;;;;32.28;28.80;;;;;;;;;;5078661;28;20141;-74
2023/05/08 10:01:53;;;;;;;31.77;26.95;;;;;;;;;;5045362;28;20120;-74
2023/05/08 10:04:35;;;;;;;32.55;28.75;;;;;;;;;;5049019;28;20055;-75
2023/05/08 10:07:01;;;;;;;32.65;28.50;;;;;;;;;;5046331;28;20128;-73
2023/05/08 10:09:27;;;;;;;31.75;28.30;;;;;;;;;;5042921;28;20056;-74
2023/05/08 10:11:54;;;;;;;32.28;28.85;;;;;;;;;;5050248;28;20124;-74
2023/05/08 10:14:21;;;;;;;32.13;28.63;;;;;;;;;;5055900;28;20059;-75
2023/05/08 10:16:48;;;;;;;32.85;29.25;;;;;;;;;;5048477;28;20048;-74
2023/05/08 10:19:17;;;;;;;31.23;26.02;;;;;;;;;;5080991;28;20048;-74
2023/05/08 10:21:48;;;;;;;34.97;30.25;;;;;;;;;;5042296;28;20123;-74
2023/05/08 10:24:21;;;;;;;32.00;27.38;;;;;;;;;;5043104;28;20056;-74
2023/05/08 10:26:56;;;;;;;32.65;27.60;;;;;;;;;;5050413;28;20036;-74
2023/05/08 10:29:27;;;;;;;32.58;27.58;;;;;;;;;;5050462;28;20126;-74
2023/05/08 10:31:58;;;;;;;32.58;29.00;;;;;;;;;;5048779;28;20393;-74
2023/05/08 10:34:27;;;;;;;33.45;28.80;;;;;;;;;;5049241;28;20076;-74
2023/05/08 10:36:53;;;;;;;33.55;29.45;;;;;;;;;;5049484;28;20048;-75
2023/05/08 10:39:20;;;;;;;32.72;26.88;;;;;;;;;;5072206;28;20053;-73
2023/05/08 10:41:47;;;;;;;32.50;28.88;;;;;;;;;;5081212;28;20155;-74
2023/05/08 10:44:13;;;;;;;35.00;30.75;;;;;;;;;;5049327;28;20095;-74
2023/05/08 10:46:47;;;;;;;32.85;28.10;;;;;;;;;;5045943;28;20496;-74
2023/05/08 10:49:25;;;;;;;32.63;29.00;;;;;;;;;;5041893;28;20060;-74
2023/05/08 10:51:59;;;;;;;31.20;25.45;;;;;;;;;;5041995;28;20037;-74
2023/05/08 10:54:29;;;;;;;33.22;29.60;;;;;;;;;;5078851;28;20137;-74
2023/05/08 10:57:06;;;;;;;34.55;28.45;;;;;;;;;;5078827;28;20049;-74
2023/05/08 10:59:34;;;;;;;31.92;27.25;;;;;;;;;;5041930;28;20120;-75
2023/05/08 11:02:05;;;;;;;35.03;30.50;;;;;;;;;;5080214;28;20125;-74
2023/05/08 11:04:31;;;;;;;32.95;26.70;;;;;;;;;;5047559;28;20048;-74
2023/05/08 11:06:58;;;;;;;33.47;28.08;;;;;;;;;;5079318;28;20098;-75
2023/05/08 11:09:42;;;;;;;32.35;28.63;;;;;;;;;;5075119;28;20077;-74
2023/05/08 11:12:08;;;;;;;33.50;29.17;;;;;;;;;;5075614;28;20037;-74
2023/05/08 11:14:36;;;;;;;32.47;27.45;;;;;;;;;;5046385;28;20111;-74
2023/05/08 11:17:02;;;;;;;33.53;29.02;;;;;;;;;;5079948;28;20443;-74
2023/05/08 11:19:29;;;;;;;32.53;28.77;;;;;;;;;;5048621;28;20045;-74
2023/05/08 11:22:10;;;;;;;32.45;28.95;;;;;;;;;;5078650;28;20041;-75
2023/05/08 11:24:36;;;;;;;32.53;28.45;;;;;;;;;;5053455;28;20059;-74
2023/05/08 11:27:02;;;;;;;30.92;27.08;;;;;;;;;;5053431;28;20557;-74
2023/05/08 11:29:28;;;;;;;31.42;28.02;;;;;;;;;;5079338;28;20544;-74
2023/05/08 11:31:55;;;;;;;30.63;27.08;;;;;;;;;;5051995;28;20377;-74
2023/05/08 11:34:39;;;;;;;34.97;28.55;;;;;;;;;;5047548;28;20128;-75
2023/05/08 11:37:08;;;;;;;33.08;27.92;;;;;;;;;;5052924;28;20037;-75
2023/05/08 11:39:35;;;;;;;35.35;29.13;;;;;;;;;;5046389;28;20147;-74
2023/05/08 11:42:20;;;;;;;30.02;26.63;;;;;;;;;;5052811;28;20116;-74
2023/05/08 11:44:46;;;;;;;30.48;27.17;;;;;;;;;;5045746;28;20044;-74
2023/05/08 11:47:15;;;;;;;30.77;27.48;;;;;;;;;;5052378;28;20056;-75
2023/05/08 11:49:42;;;;;;;28.85;25.02;;;;;;;;;;5052130;28;20041;-75
2023/05/08 11:52:08;;;;;;;32.72;28.80;;;;;;;;;;5049430;28;20037;-75
2023/05/08 11:54:34;;;;;;;28.88;25.77;;;;;;;;;;5051297;28;20048;-74
2023/05/08 11:57:00;;;;;;;29.67;24.77;;;;;;;;;;5082273;28;20149;-74
2023/05/08 11:59:26;;;;;;;30.98;27.38;;;;;;;;;;5051127;28;20607;-74
2023/05/08 12:01:52;;;;;;;31.13;27.27;;;;;;;;;;5081645;28;20079;-75
2023/05/08 12:04:18;;;;;;;33.20;29.38;;;;;;;;;;5053783;28;20122;-75
2023/05/08 12:06:47;;;;;;;33.83;29.52;;;;;;;;;;5051999;28;20490;-74
2023/05/08 12:09:17;;;;;;;33.92;29.35;;;;;;;;;;5082056;28;20073;-74
2023/05/08 12:11:44;;;;;;;35.72;30.77;;;;;;;;;;5054521;28;20091;-75
2023/05/08 12:14:11;;;;;;;33.70;28.30;;;;;;;;;;5055849;28;20045;-74
2023/05/08 12:16:37;;;;;;;34.80;30.42;;;;;;;;;;5051370;28;20045;-74
2023/05/08 12:19:03;;;;;;;35.22;31.38;;;;;;;;;;5055875;28;20128;-74
2023/05/08 12:21:30;;;;;;;35.00;31.00;;;;;;;;;;5049538;28;20070;-75
2023/05/08 12:23:57;;;;;;;35.53;29.92;;;;;;;;;;5057983;28;20037;-75
2023/05/08 12:26:23;;;;;;;34.30;29.77;;;;;;;;;;5050116;28;20049;-75
2023/05/08 12:28:55;;;;;;;36.15;31.92;;;;;;;;;;5048585;28;20365;-75
2023/05/08 12:31:21;;;;;;;33.28;28.48;;;;;;;;;;5049148;28;20048;-74
2023/05/08 12:33:47;;;;;;;35.30;31.60;;;;;;;;;;5060890;28;20158;-75
2023/05/08 12:36:14;;;;;;;35.08;31.27;;;;;;;;;;5050244;28;20048;-75
2023/05/08 12:38:40;;;;;;;34.55;30.85;;;;;;;;;;5051437;28;20036;-75
2023/05/08 12:41:07;;;;;;;36.08;32.13;;;;;;;;;;5082797;28;20049;-75
2023/05/08 12:43:34;;;;;;;37.80;31.25;;;;;;;;;;5050328;28;20037;-75
2023/05/08 12:46:00;;;;;;;35.97;32.22;;;;;;;;;;5082627;28;20476;-75
2023/05/08 12:48:27;;;;;;;34.70;31.00;;;;;;;;;;5050773;28;20140;-75
2023/05/08 12:50:53;;;;;;;34.47;30.77;;;;;;;;;;5043565;28;20048;-74
2023/05/08 12:53:20;;;;;;;34.85;30.77;;;;;;;;;;5076081;28;20076;-74
2023/05/08 12:55:51;;;;;;;37.70;33.78;;;;;;;;;;5058205;28;20060;-75
2023/05/08 12:58:18;;;;;;;37.05;33.03;;;;;;;;;;5054634;28;20123;-75
2023/05/08 13:00:45;;;;;;;33.67;28.73;;;;;;;;;;5049169;28;20215;-75
2023/05/08 13:03:12;;;;;;;32.15;28.63;;;;;;;;;;5052075;28;20053;-75
2023/05/08 13:05:44;;;;;;;33.60;27.88;;;;;;;;;;5055905;28;20041;-75
2023/05/08 13:08:11;;;;;;;33.22;27.98;;;;;;;;;;5049078;28;20059;-74
2023/05/08 13:10:49;;;;;;;35.90;28.25;;;;;;;;;;5056540;28;20753;-75
2023/05/08 13:13:19;;;;;;;34.60;30.25;;;;;;;;;;5078533;28;20048;-75
2023/05/08 13:15:46;;;;;;;35.15;30.48;;;;;;;;;;5044840;28;20379;-75
2023/05/08 13:18:12;;;;;;;35.22;30.92;;;;;;;;;;5081095;28;20132;-74
2023/05/08 13:20:38;;;;;;;32.53;29.13;;;;;;;;;;5048286;28;20044;-75
2023/05/08 13:23:08;;;;;;;33.90;30.25;;;;;;;;;;5049310;28;20052;-74
2023/05/08 13:25:35;;;;;;;32.83;28.60;;;;;;;;;;5049326;28;20045;-75
2023/05/08 13:28:01;;;;;;;35.30;31.40;;;;;;;;;;5048256;28;20047;-75
2023/05/08 13:30:27;;;;;;;34.28;30.63;;;;;;;;;;5080646;28;20099;-75
2023/05/08 13:32:54;;;;;;;36.17;31.15;;;;;;;;;;5051139;28;20058;-75
2023/05/08 13:35:20;;;;;;;32.05;28.75;;;;;;;;;;5045279;28;20056;-75
2023/05/08 13:37:47;;;;;;;33.40;29.92;;;;;;;;;;5057078;28;20033;-74
2023/05/08 13:40:13;;;;;;;31.42;28.08;;;;;;;;;;5080541;28;20053;-75
2023/05/08 13:42:39;;;;;;;33.67;30.05;;;;;;;;;;5051479;28;20041;-75
2023/05/08 13:45:06;;;;;;;34.22;28.92;;;;;;;;;;5050275;28;20139;-75
2023/05/08 13:47:32;;;;;;;33.72;30.20;;;;;;;;;;5048437;28;20063;-75
2023/05/08 13:49:58;;;;;;;32.58;29.17;;;;;;;;;;5052985;28;20233;-75
2023/05/08 13:52:28;;;;;;;34.58;30.80;;;;;;;;;;5049465;28;20045;-75
2023/05/08 13:54:54;;;;;;;33.33;28.85;;;;;;;;;;5053891;28;20040;-75
2023/05/08 13:57:20;;;;;;;31.83;28.48;;;;;;;;;;5053460;28;20044;-75
2023/05/08 13:59:46;;;;;;;31.98;28.20;;;;;;;;;;5059871;28;20048;-75
2023/05/08 14:02:12;;;;;;;30.17;26.92;;;;;;;;;;5057732;28;20575;-75
2023/05/08 14:04:39;;;;;;;31.23;27.77;;;;;;;;;;5052373;28;20044;-74
2023/05/08 14:07:05;;;;;;;35.17;29.63;;;;;;;;;;5040992;28;20492;-75
2023/05/08 14:09:31;;;;;;;36.05;30.40;;;;;;;;;;5050681;28;20492;-75
2023/05/08 14:11:57;;;;;;;35.88;29.20;;;;;;;;;;5052613;28;20043;-74
2023/05/08 14:14:23;;;;;;;35.95;29.80;;;;;;;;;;5049464;28;20396;-75
2023/05/08 14:16:50;;;;;;;35.13;28.35;;;;;;;;;;5054104;28;20114;-75
2023/05/08 14:19:16;;;;;;;35.47;28.70;;;;;;;;;;5048155;28;20044;-75
2023/05/08 14:21:43;;;;;;;33.15;28.10;;;;;;;;;;5043105;28;20168;-75